createdAt,value
2022-11-30T00:00:28.754Z,1016.06
2022-11-30T00:01:28.730Z,1016.02
2022-11-30T00:02:28.748Z,1016.03
2022-11-30T00:03:28.701Z,1015.94
2022-11-30T00:04:28.671Z,1016.01
2022-11-30T00:05:28.703Z,1016.02
2022-11-30T00:06:28.645Z,1016.00
2022-11-30T00:07:28.674Z,1015.99
2022-11-30T00:08:28.647Z,1016.02
2022-11-30T00:09:28.596Z,1016.08
2022-11-30T00:10:28.631Z,1016.08
2022-11-30T00:11:28.685Z,1016.07
2022-11-30T00:12:28.573Z,1016.08
2022-11-30T00:13:28.548Z,1016.12
2022-11-30T00:14:28.566Z,1016.08
2022-11-30T00:15:28.603Z,1016.14
2022-11-30T00:16:28.586Z,1016.13
2022-11-30T00:17:28.500Z,1016.14
2022-11-30T00:18:28.498Z,1016.19
2022-11-30T00:19:28.488Z,1016.15
2022-11-30T00:20:28.504Z,1016.18
2022-11-30T00:21:28.491Z,1016.15
2022-11-30T00:22:28.462Z,1016.16
2022-11-30T00:23:28.454Z,1016.16
2022-11-30T00:24:28.431Z,1016.18
2022-11-30T00:25:28.475Z,1016.17
2022-11-30T00:26:28.415Z,1016.19
2022-11-30T00:27:28.391Z,1016.22
2022-11-30T00:28:28.396Z,1016.19
2022-11-30T00:29:28.366Z,1016.21
2022-11-30T00:30:28.438Z,1016.17
2022-11-30T00:31:28.341Z,1016.22
2022-11-30T00:32:28.353Z,1016.19
2022-11-30T00:33:28.343Z,1016.18
2022-11-30T00:34:28.329Z,1016.16
2022-11-30T00:35:28.345Z,1016.21
2022-11-30T00:36:28.307Z,1016.08
2022-11-30T00:37:28.295Z,1016.17
2022-11-30T00:38:28.291Z,1016.14
2022-11-30T00:39:33.887Z,1016.17
2022-11-30T00:40:29.297Z,1016.10
2022-11-30T00:41:28.250Z,1016.16
2022-11-30T00:42:28.257Z,1016.12
2022-11-30T00:43:28.209Z,1016.13
2022-11-30T00:44:28.232Z,1016.07
2022-11-30T00:45:28.243Z,1016.07
2022-11-30T00:46:28.220Z,1016.09
2022-11-30T00:47:28.210Z,1016.14
2022-11-30T00:48:28.193Z,1016.13
2022-11-30T00:49:28.146Z,1016.10
2022-11-30T00:50:28.159Z,1016.11
2022-11-30T00:51:28.132Z,1016.10
2022-11-30T00:52:28.131Z,1016.08
2022-11-30T00:53:28.098Z,1016.09
2022-11-30T00:54:28.100Z,1016.11
2022-11-30T00:55:30.407Z,1016.11
2022-11-30T00:56:28.077Z,1016.09
2022-11-30T00:57:28.075Z,1016.15
2022-11-30T00:58:28.076Z,1016.11
2022-11-30T00:59:28.045Z,1016.18
2022-11-30T01:00:28.076Z,1016.16
2022-11-30T01:01:28.094Z,1016.18
2022-11-30T01:02:28.090Z,1016.18
2022-11-30T01:03:27.997Z,1016.21
2022-11-30T01:04:27.999Z,1016.17
2022-11-30T01:05:28.033Z,1016.20
2022-11-30T01:06:27.985Z,1016.23
2022-11-30T01:07:28.002Z,1016.20
2022-11-30T01:08:27.935Z,1016.21
2022-11-30T01:09:27.933Z,1016.21
2022-11-30T01:10:27.969Z,1016.19
2022-11-30T01:11:27.911Z,1016.25
2022-11-30T01:12:27.907Z,1016.21
2022-11-30T01:13:27.898Z,1016.19
2022-11-30T01:14:27.883Z,1016.20
2022-11-30T01:15:27.895Z,1016.25
2022-11-30T01:16:27.869Z,1016.32
2022-11-30T01:17:27.839Z,1016.23
2022-11-30T01:18:27.846Z,1016.24
2022-11-30T01:19:27.816Z,1016.26
2022-11-30T01:20:27.855Z,1016.26
2022-11-30T01:21:27.801Z,1016.32
2022-11-30T01:22:27.801Z,1016.31
2022-11-30T01:23:27.783Z,1016.35
2022-11-30T01:24:27.751Z,1016.34
2022-11-30T01:25:27.776Z,1016.35
2022-11-30T01:26:27.743Z,1016.38
2022-11-30T01:27:27.731Z,1016.32
2022-11-30T01:28:27.737Z,1016.34
2022-11-30T01:29:27.721Z,1016.38
2022-11-30T01:30:27.761Z,1016.30
2022-11-30T01:31:27.726Z,1016.29
2022-11-30T01:32:27.724Z,1016.28
2022-11-30T01:33:27.664Z,1016.30
2022-11-30T01:34:27.664Z,1016.30
2022-11-30T01:35:27.638Z,1016.30
2022-11-30T01:36:27.695Z,1016.28
2022-11-30T01:37:27.627Z,1016.33
2022-11-30T01:38:27.639Z,1016.34
2022-11-30T01:39:27.609Z,1016.27
2022-11-30T01:40:27.604Z,1016.30
2022-11-30T01:41:27.618Z,1016.36
2022-11-30T01:42:27.551Z,1016.36
2022-11-30T01:43:27.563Z,1016.39
2022-11-30T01:44:27.528Z,1016.34
2022-11-30T01:45:27.560Z,1016.38
2022-11-30T01:46:27.595Z,1016.37
2022-11-30T01:47:27.487Z,1016.33
2022-11-30T01:48:27.489Z,1016.34
2022-11-30T01:49:27.493Z,1016.35
2022-11-30T01:50:27.484Z,1016.36
2022-11-30T01:51:27.517Z,1016.35
2022-11-30T01:52:27.471Z,1016.32
2022-11-30T01:53:27.431Z,1016.33
2022-11-30T01:54:27.446Z,1016.32
2022-11-30T01:55:27.407Z,1016.33
2022-11-30T01:56:27.432Z,1016.31
2022-11-30T01:57:27.373Z,1016.33
2022-11-30T01:58:27.378Z,1016.32
2022-11-30T01:59:27.370Z,1016.28
2022-11-30T02:00:27.374Z,1016.37
2022-11-30T02:01:27.468Z,1016.35
2022-11-30T02:02:27.371Z,1016.40
2022-11-30T02:03:27.328Z,1016.37
2022-11-30T02:04:27.330Z,1016.39
2022-11-30T02:05:27.325Z,1016.42
2022-11-30T02:06:27.314Z,1016.40
2022-11-30T02:07:27.374Z,1016.41
2022-11-30T02:08:27.481Z,1016.38
2022-11-30T02:09:27.281Z,1016.37
2022-11-30T02:10:27.269Z,1016.37
2022-11-30T02:11:27.256Z,1016.36
2022-11-30T02:12:27.225Z,1016.34
2022-11-30T02:13:27.241Z,1016.34
2022-11-30T02:14:27.210Z,1016.38
2022-11-30T02:15:27.223Z,1016.36
2022-11-30T02:16:27.222Z,1016.38
2022-11-30T02:17:27.181Z,1016.39
2022-11-30T02:18:27.179Z,1016.38
2022-11-30T02:19:27.160Z,1016.39
2022-11-30T02:20:27.143Z,1016.39
2022-11-30T02:21:27.174Z,1016.35
2022-11-30T02:22:27.136Z,1016.40
2022-11-30T02:23:27.143Z,1016.41
2022-11-30T02:24:27.106Z,1016.39
2022-11-30T02:25:27.087Z,1016.37
2022-11-30T02:26:27.103Z,1016.37
2022-11-30T02:27:27.062Z,1016.40
2022-11-30T02:28:27.065Z,1016.38
2022-11-30T02:29:27.026Z,1016.34
2022-11-30T02:30:27.013Z,1016.36
2022-11-30T02:31:27.138Z,1016.35
2022-11-30T02:32:27.009Z,1016.35
2022-11-30T02:33:27.017Z,1016.32
2022-11-30T02:34:26.998Z,1016.37
2022-11-30T02:35:26.995Z,1016.37
2022-11-30T02:36:27.003Z,1016.35
2022-11-30T02:37:26.950Z,1016.29
2022-11-30T02:38:26.961Z,1016.29
2022-11-30T02:39:26.920Z,1016.32
2022-11-30T02:40:26.915Z,1016.30
2022-11-30T02:41:26.966Z,1016.32
2022-11-30T02:42:26.907Z,1016.25
2022-11-30T02:43:26.887Z,1016.27
2022-11-30T02:44:26.863Z,1016.25
2022-11-30T02:45:26.877Z,1016.29
2022-11-30T02:46:26.945Z,1016.28
2022-11-30T02:47:26.838Z,1016.31
2022-11-30T02:48:26.828Z,1016.28
2022-11-30T02:49:26.835Z,1016.29
2022-11-30T02:50:26.814Z,1016.33
2022-11-30T02:51:26.827Z,1016.33
2022-11-30T02:52:26.801Z,1016.32
2022-11-30T02:53:26.775Z,1016.40
2022-11-30T02:54:26.763Z,1016.39
2022-11-30T02:55:26.743Z,1016.41
2022-11-30T02:56:26.787Z,1016.38
2022-11-30T02:57:26.743Z,1016.41
2022-11-30T02:58:26.719Z,1016.36
2022-11-30T02:59:26.709Z,1016.43
2022-11-30T03:00:26.668Z,1016.41
2022-11-30T03:01:26.758Z,1016.41
2022-11-30T03:02:26.660Z,1016.43
2022-11-30T03:03:26.673Z,1016.43
2022-11-30T03:04:26.641Z,1016.39
2022-11-30T03:05:26.662Z,1016.40
2022-11-30T03:06:26.630Z,1016.41
2022-11-30T03:07:26.649Z,1016.41
2022-11-30T03:08:26.614Z,1016.41
2022-11-30T03:09:26.594Z,1016.43
2022-11-30T03:10:26.586Z,1016.46
2022-11-30T03:11:26.578Z,1016.48
2022-11-30T03:12:26.580Z,1016.47
2022-11-30T03:13:26.541Z,1016.46
2022-11-30T03:14:26.546Z,1016.47
2022-11-30T03:15:26.525Z,1016.43
2022-11-30T03:16:26.511Z,1016.45
2022-11-30T03:17:26.529Z,1016.46
2022-11-30T03:18:26.477Z,1016.49
2022-11-30T03:19:26.481Z,1016.50
2022-11-30T03:20:26.462Z,1016.45
2022-11-30T03:21:26.471Z,1016.48
2022-11-30T03:22:26.503Z,1016.49
2022-11-30T03:23:26.447Z,1016.54
2022-11-30T03:24:26.425Z,1016.57
2022-11-30T03:25:26.429Z,1016.54
2022-11-30T03:26:26.399Z,1016.56
2022-11-30T03:27:26.432Z,1016.61
2022-11-30T03:28:26.396Z,1016.64
2022-11-30T03:29:26.367Z,1016.67
2022-11-30T03:30:26.380Z,1016.65
2022-11-30T03:31:26.367Z,1016.64
2022-11-30T03:32:26.368Z,1016.66
2022-11-30T03:33:26.324Z,1016.63
2022-11-30T03:34:26.303Z,1016.71
2022-11-30T03:35:26.302Z,1016.72
2022-11-30T03:36:26.265Z,1016.72
2022-11-30T03:37:26.312Z,1016.78
2022-11-30T03:38:26.271Z,1016.81
2022-11-30T03:39:26.268Z,1016.79
2022-11-30T03:40:26.243Z,1016.76
2022-11-30T03:41:26.231Z,1016.79
2022-11-30T03:42:26.268Z,1016.80
2022-11-30T03:43:26.210Z,1016.83
2022-11-30T03:44:26.215Z,1016.78
2022-11-30T03:45:26.196Z,1016.83
2022-11-30T03:46:26.202Z,1016.82
2022-11-30T03:47:26.224Z,1016.84
2022-11-30T03:48:26.176Z,1016.88
2022-11-30T03:49:26.156Z,1016.89
2022-11-30T03:50:26.132Z,1016.88
2022-11-30T03:51:26.129Z,1016.86
2022-11-30T03:52:26.154Z,1016.92
2022-11-30T03:53:26.079Z,1016.91
2022-11-30T03:54:26.075Z,1016.87
2022-11-30T03:55:26.065Z,1016.88
2022-11-30T03:56:26.061Z,1016.89
2022-11-30T03:57:26.071Z,1016.91
2022-11-30T03:58:26.149Z,1016.89
2022-11-30T03:59:26.030Z,1016.93
2022-11-30T04:00:26.039Z,1016.95
2022-11-30T04:01:26.019Z,1016.87
2022-11-30T04:02:26.108Z,1016.88
2022-11-30T04:03:25.990Z,1016.91
2022-11-30T04:04:25.969Z,1016.90
2022-11-30T04:05:25.966Z,1016.91
2022-11-30T04:06:25.922Z,1016.90
2022-11-30T04:07:25.969Z,1016.93
2022-11-30T04:08:25.899Z,1016.92
2022-11-30T04:09:25.887Z,1016.89
2022-11-30T04:10:25.913Z,1016.87
2022-11-30T04:11:25.873Z,1016.85
2022-11-30T04:12:25.892Z,1016.83
2022-11-30T04:13:25.860Z,1016.89
2022-11-30T04:14:25.858Z,1016.89
2022-11-30T04:15:25.819Z,1016.91
2022-11-30T04:16:25.857Z,1016.91
2022-11-30T04:17:25.851Z,1016.93
2022-11-30T04:18:25.807Z,1016.90
2022-11-30T04:19:25.818Z,1016.92
2022-11-30T04:20:25.778Z,1016.94
2022-11-30T04:21:25.787Z,1016.95
2022-11-30T04:22:25.757Z,1016.95
2022-11-30T04:23:25.794Z,1017.03
2022-11-30T04:24:25.709Z,1016.99
2022-11-30T04:25:25.733Z,1017.01
2022-11-30T04:26:25.714Z,1016.99
2022-11-30T04:27:25.722Z,1017.02
2022-11-30T04:28:25.735Z,1017.00
2022-11-30T04:29:25.679Z,1016.99
2022-11-30T04:30:25.674Z,1016.99
2022-11-30T04:31:25.670Z,1017.00
2022-11-30T04:32:25.643Z,1016.99
2022-11-30T04:33:25.683Z,1016.97
2022-11-30T04:34:25.659Z,1017.02
2022-11-30T04:35:25.632Z,1016.98
2022-11-30T04:36:25.599Z,1016.97
2022-11-30T04:37:25.588Z,1017.01
2022-11-30T04:38:25.619Z,1017.00
2022-11-30T04:39:25.557Z,1017.01
2022-11-30T04:40:25.549Z,1016.99
2022-11-30T04:41:25.536Z,1017.03
2022-11-30T04:42:25.527Z,1017.03
2022-11-30T04:43:25.559Z,1017.02
2022-11-30T04:44:25.516Z,1017.00
2022-11-30T04:45:25.495Z,1016.98
2022-11-30T04:46:25.530Z,1017.04
2022-11-30T04:47:25.474Z,1017.04
2022-11-30T04:48:25.475Z,1017.00
2022-11-30T04:49:25.441Z,1017.01
2022-11-30T04:50:25.458Z,1017.07
2022-11-30T04:51:25.423Z,1017.03
2022-11-30T04:52:25.406Z,1017.06
2022-11-30T04:53:25.449Z,1017.06
2022-11-30T04:54:25.388Z,1017.07
2022-11-30T04:55:25.373Z,1017.08
2022-11-30T04:56:25.371Z,1017.10
2022-11-30T04:57:25.390Z,1017.10
2022-11-30T04:58:25.383Z,1017.10
2022-11-30T04:59:25.313Z,1017.09
2022-11-30T05:00:25.336Z,1017.10
2022-11-30T05:01:25.401Z,1017.09
2022-11-30T05:02:25.299Z,1017.12
2022-11-30T05:03:25.298Z,1017.10
2022-11-30T05:04:25.327Z,1017.13
2022-11-30T05:05:25.264Z,1017.12
2022-11-30T05:06:25.252Z,1017.11
2022-11-30T05:07:25.297Z,1017.15
2022-11-30T05:08:25.235Z,1017.18
2022-11-30T05:09:25.271Z,1017.18
2022-11-30T05:10:25.198Z,1017.18
2022-11-30T05:11:25.207Z,1017.21
2022-11-30T05:12:25.184Z,1017.22
2022-11-30T05:13:25.151Z,1017.26
2022-11-30T05:14:25.209Z,1017.19
2022-11-30T05:15:25.158Z,1017.25
2022-11-30T05:16:25.170Z,1017.25
2022-11-30T05:17:25.133Z,1017.25
2022-11-30T05:18:25.135Z,1017.27
2022-11-30T05:19:25.141Z,1017.25
2022-11-30T05:20:25.120Z,1017.27
2022-11-30T05:21:25.108Z,1017.30
2022-11-30T05:22:25.085Z,1017.31
2022-11-30T05:23:25.071Z,1017.33
2022-11-30T05:24:25.093Z,1017.29
2022-11-30T05:25:25.062Z,1017.35
2022-11-30T05:26:25.036Z,1017.38
2022-11-30T05:27:25.009Z,1017.31
2022-11-30T05:28:24.997Z,1017.33
2022-11-30T05:29:25.055Z,1017.34
2022-11-30T05:30:24.993Z,1017.37
2022-11-30T05:31:25.029Z,1017.36
2022-11-30T05:32:24.968Z,1017.44
2022-11-30T05:33:24.944Z,1017.43
2022-11-30T05:34:24.995Z,1017.45
2022-11-30T05:35:25.016Z,1017.45
2022-11-30T05:36:24.907Z,1017.42
2022-11-30T05:37:24.925Z,1017.48
2022-11-30T05:38:24.878Z,1017.47
2022-11-30T05:39:24.913Z,1017.47
2022-11-30T05:40:24.877Z,1017.53
2022-11-30T05:41:24.872Z,1017.49
2022-11-30T05:42:24.840Z,1017.50
2022-11-30T05:43:24.838Z,1017.50
2022-11-30T05:44:24.846Z,1017.48
2022-11-30T05:45:24.813Z,1017.52
2022-11-30T05:46:24.860Z,1017.49
2022-11-30T05:47:24.804Z,1017.48
2022-11-30T05:48:24.793Z,1017.50
2022-11-30T05:49:24.813Z,1017.52
2022-11-30T05:50:24.777Z,1017.50
2022-11-30T05:51:24.742Z,1017.52
2022-11-30T05:52:24.725Z,1017.51
2022-11-30T05:53:24.742Z,1017.52
2022-11-30T05:54:24.751Z,1017.52
2022-11-30T05:55:24.717Z,1017.55
2022-11-30T05:56:24.702Z,1017.55
2022-11-30T05:57:24.691Z,1017.51
2022-11-30T05:58:24.715Z,1017.54
2022-11-30T05:59:24.715Z,1017.53
2022-11-30T06:00:24.651Z,1017.52
2022-11-30T06:01:24.645Z,1017.52
2022-11-30T06:02:28.169Z,1017.51
2022-11-30T06:03:24.671Z,1017.52
2022-11-30T06:04:24.600Z,1017.59
2022-11-30T06:05:24.645Z,1017.56
2022-11-30T06:06:24.627Z,1017.58
2022-11-30T06:07:24.605Z,1017.59
2022-11-30T06:08:24.572Z,1017.55
2022-11-30T06:09:24.552Z,1017.58
2022-11-30T06:10:24.572Z,1017.57
2022-11-30T06:11:24.543Z,1017.60
2022-11-30T06:12:24.505Z,1017.62
2022-11-30T06:13:28.700Z,1017.60
2022-11-30T06:14:24.483Z,1017.68
2022-11-30T06:15:24.504Z,1017.61
2022-11-30T06:16:24.518Z,1017.67
2022-11-30T06:17:24.442Z,1017.65
2022-11-30T06:18:24.436Z,1017.64
2022-11-30T06:19:24.422Z,1017.69
2022-11-30T06:20:24.459Z,1017.60
2022-11-30T06:21:25.083Z,1017.63
2022-11-30T06:22:24.421Z,1017.64
2022-11-30T06:23:24.398Z,1017.69
2022-11-30T06:24:24.382Z,1017.70
2022-11-30T06:25:24.432Z,1017.69
2022-11-30T06:26:24.341Z,1017.68
2022-11-30T06:27:24.352Z,1017.69
2022-11-30T06:28:24.342Z,1017.73
2022-11-30T06:29:24.335Z,1017.71
2022-11-30T06:30:24.357Z,1017.73
2022-11-30T06:31:24.347Z,1017.74
2022-11-30T06:32:24.281Z,1017.67
2022-11-30T06:33:24.298Z,1017.74
2022-11-30T06:34:24.276Z,1017.74
2022-11-30T06:35:24.295Z,1017.73
2022-11-30T06:36:24.241Z,1017.76
2022-11-30T06:37:24.247Z,1017.75
2022-11-30T06:38:24.224Z,1017.75
2022-11-30T06:39:50.024Z,1017.77
2022-11-30T06:40:25.235Z,1017.73
2022-11-30T06:41:24.189Z,1017.72
2022-11-30T06:42:24.195Z,1017.78
2022-11-30T06:43:24.179Z,1017.72
2022-11-30T06:44:24.153Z,1017.74
2022-11-30T06:45:24.169Z,1017.73
2022-11-30T06:46:24.120Z,1017.74
2022-11-30T06:47:24.120Z,1017.74
2022-11-30T06:48:24.099Z,1017.76
2022-11-30T06:49:24.090Z,1017.69
2022-11-30T06:50:24.137Z,1017.75
2022-11-30T06:51:24.120Z,1017.77
2022-11-30T06:52:24.081Z,1017.80
2022-11-30T06:53:24.074Z,1017.77
2022-11-30T06:54:24.043Z,1017.84
2022-11-30T06:55:24.060Z,1017.83
2022-11-30T06:56:24.018Z,1017.85
2022-11-30T06:57:24.015Z,1017.85
2022-11-30T06:58:24.027Z,1017.83
2022-11-30T06:59:23.986Z,1017.90
2022-11-30T07:00:24.014Z,1017.86
2022-11-30T07:01:24.028Z,1017.84
2022-11-30T07:02:23.941Z,1017.91
2022-11-30T07:03:23.960Z,1017.88
2022-11-30T07:04:23.956Z,1017.86
2022-11-30T07:05:23.961Z,1017.93
2022-11-30T07:06:23.925Z,1017.93
2022-11-30T07:07:23.937Z,1017.93
2022-11-30T07:08:23.895Z,1017.88
2022-11-30T07:09:23.878Z,1017.89
2022-11-30T07:10:23.947Z,1017.90
2022-11-30T07:11:23.856Z,1017.92
2022-11-30T07:12:24.048Z,1017.88
2022-11-30T07:13:23.837Z,1017.84
2022-11-30T07:14:23.827Z,1017.87
2022-11-30T07:15:23.849Z,1017.83
2022-11-30T07:16:23.873Z,1017.83
2022-11-30T07:17:23.795Z,1017.88
2022-11-30T07:18:27.154Z,1017.90
2022-11-30T07:19:24.781Z,1017.92
2022-11-30T07:20:23.795Z,1017.94
2022-11-30T07:21:23.749Z,1017.94
2022-11-30T07:22:23.753Z,1017.90
2022-11-30T07:23:23.699Z,1017.93
2022-11-30T07:24:23.710Z,1017.99
2022-11-30T07:25:23.730Z,1017.98
2022-11-30T07:26:23.716Z,1017.99
2022-11-30T07:27:23.678Z,1018.01
2022-11-30T07:28:23.670Z,1018.02
2022-11-30T07:29:23.647Z,1017.98
2022-11-30T07:30:23.705Z,1018.06
2022-11-30T07:31:23.664Z,1018.09
2022-11-30T07:32:23.650Z,1018.08
2022-11-30T07:33:23.614Z,1018.08
2022-11-30T07:34:23.595Z,1018.06
2022-11-30T07:35:23.636Z,1018.04
2022-11-30T07:36:23.624Z,1018.06
2022-11-30T07:37:23.547Z,1018.09
2022-11-30T07:38:23.540Z,1018.08
2022-11-30T07:39:23.544Z,1018.13
2022-11-30T07:40:23.586Z,1018.11
2022-11-30T07:41:23.521Z,1018.12
2022-11-30T07:42:23.492Z,1018.14
2022-11-30T07:43:23.497Z,1018.17
2022-11-30T07:44:23.497Z,1018.13
2022-11-30T07:45:23.520Z,1018.15
2022-11-30T07:46:23.504Z,1018.17
2022-11-30T07:47:23.445Z,1018.17
2022-11-30T07:48:23.453Z,1018.21
2022-11-30T07:49:23.414Z,1018.22
2022-11-30T07:50:23.474Z,1018.19
2022-11-30T07:51:23.382Z,1018.26
2022-11-30T07:52:23.395Z,1018.23
2022-11-30T07:53:23.395Z,1018.28
2022-11-30T07:54:23.372Z,1018.24
2022-11-30T07:55:23.356Z,1018.27
2022-11-30T07:56:23.371Z,1018.26
2022-11-30T07:57:23.328Z,1018.31
2022-11-30T07:58:23.311Z,1018.28
2022-11-30T07:59:23.307Z,1018.33
2022-11-30T08:00:23.299Z,1018.31
2022-11-30T08:01:23.416Z,1018.30
2022-11-30T08:02:23.405Z,1018.30
2022-11-30T08:03:23.267Z,1018.39
2022-11-30T08:04:23.318Z,1018.36
2022-11-30T08:05:23.241Z,1018.34
2022-11-30T08:06:23.284Z,1018.32
2022-11-30T08:07:23.309Z,1018.33
2022-11-30T08:08:23.207Z,1018.38
2022-11-30T08:09:23.206Z,1018.39
2022-11-30T08:10:23.188Z,1018.40
2022-11-30T08:11:23.222Z,1018.44
2022-11-30T08:12:23.178Z,1018.45
2022-11-30T08:13:23.167Z,1018.42
2022-11-30T08:14:23.159Z,1018.42
2022-11-30T08:15:28.921Z,1018.39
2022-11-30T08:16:24.251Z,1018.48
2022-11-30T08:17:23.093Z,1018.44
2022-11-30T08:18:23.114Z,1018.43
2022-11-30T08:19:23.103Z,1018.43
2022-11-30T08:20:23.075Z,1018.45
2022-11-30T08:21:23.076Z,1018.44
2022-11-30T08:22:23.079Z,1018.50
2022-11-30T08:23:23.012Z,1018.44
2022-11-30T08:24:23.101Z,1018.43
2022-11-30T08:25:23.034Z,1018.48
2022-11-30T08:26:23.030Z,1018.50
2022-11-30T08:27:22.995Z,1018.51
2022-11-30T08:28:23.015Z,1018.44
2022-11-30T08:29:22.987Z,1018.49
2022-11-30T08:30:27.730Z,1018.48
2022-11-30T08:31:24.068Z,1018.43
2022-11-30T08:32:22.962Z,1018.49
2022-11-30T08:33:22.938Z,1018.48
2022-11-30T08:34:22.919Z,1018.48
2022-11-30T08:35:22.901Z,1018.44
2022-11-30T08:36:22.955Z,1018.50
2022-11-30T08:37:22.898Z,1018.55
2022-11-30T08:38:22.871Z,1018.54
2022-11-30T08:39:22.856Z,1018.53
2022-11-30T08:40:22.860Z,1018.54
2022-11-30T08:41:22.861Z,1018.57
2022-11-30T08:42:22.855Z,1018.58
2022-11-30T08:43:22.806Z,1018.56
2022-11-30T08:44:22.790Z,1018.57
2022-11-30T08:45:22.799Z,1018.58
2022-11-30T08:46:53.030Z,1018.62
2022-11-30T08:47:23.802Z,1018.55
2022-11-30T08:48:22.771Z,1018.64
2022-11-30T08:50:23.803Z,1018.68
2022-11-30T08:51:22.787Z,1018.61
2022-11-30T08:52:22.708Z,1018.63
2022-11-30T08:53:22.705Z,1018.66
2022-11-30T08:54:22.672Z,1018.59
2022-11-30T08:55:22.683Z,1018.63
2022-11-30T08:56:22.679Z,1018.58
2022-11-30T08:57:22.710Z,1018.63
2022-11-30T08:58:22.668Z,1018.63
2022-11-30T08:59:22.633Z,1018.62
2022-11-30T09:00:22.644Z,1018.62
2022-11-30T09:01:22.628Z,1018.64
2022-11-30T09:02:22.670Z,1018.61
2022-11-30T09:03:22.599Z,1018.67
2022-11-30T09:04:22.568Z,1018.70
2022-11-30T09:05:22.550Z,1018.70
2022-11-30T09:06:22.586Z,1018.74
2022-11-30T09:07:22.666Z,1018.72
2022-11-30T09:08:22.549Z,1018.66
2022-11-30T09:09:22.512Z,1018.65
2022-11-30T09:10:22.533Z,1018.74
2022-11-30T09:11:22.487Z,1018.74
2022-11-30T09:12:22.533Z,1018.72
2022-11-30T09:13:22.471Z,1018.76
2022-11-30T09:14:22.493Z,1018.78
2022-11-30T09:15:22.442Z,1018.75
2022-11-30T09:16:22.477Z,1018.78
2022-11-30T09:17:22.450Z,1018.79
2022-11-30T09:18:22.410Z,1018.75
2022-11-30T09:19:22.436Z,1018.76
2022-11-30T09:20:22.411Z,1018.83
2022-11-30T09:21:22.408Z,1018.80
2022-11-30T09:22:22.441Z,1018.80
2022-11-30T09:23:22.373Z,1018.80
2022-11-30T09:24:22.357Z,1018.86
2022-11-30T09:25:22.323Z,1018.81
2022-11-30T09:26:22.344Z,1018.85
2022-11-30T09:27:22.411Z,1018.84
2022-11-30T09:28:22.322Z,1018.87
2022-11-30T09:29:22.300Z,1018.86
2022-11-30T09:30:22.314Z,1018.84
2022-11-30T09:31:22.277Z,1018.85
2022-11-30T09:32:22.314Z,1018.86
2022-11-30T09:33:22.263Z,1018.85
2022-11-30T09:34:22.258Z,1018.83
2022-11-30T09:35:22.240Z,1018.88
2022-11-30T09:36:22.214Z,1018.90
2022-11-30T09:37:22.229Z,1018.85
2022-11-30T09:38:22.283Z,1018.85
2022-11-30T09:39:22.205Z,1018.81
2022-11-30T09:40:22.181Z,1018.87
2022-11-30T09:41:22.147Z,1018.88
2022-11-30T09:42:22.192Z,1018.87
2022-11-30T09:43:22.163Z,1018.94
2022-11-30T09:44:22.138Z,1018.94
2022-11-30T09:45:22.118Z,1018.96
2022-11-30T09:46:22.147Z,1018.94
2022-11-30T09:47:22.887Z,1018.89
2022-11-30T09:48:22.076Z,1018.90
2022-11-30T09:49:22.106Z,1018.92
2022-11-30T09:50:22.070Z,1018.89
2022-11-30T09:51:22.075Z,1018.91
2022-11-30T09:52:22.071Z,1018.95
2022-11-30T09:53:27.664Z,1018.93
2022-11-30T09:54:23.023Z,1018.86
2022-11-30T09:55:21.986Z,1018.95
2022-11-30T09:56:21.982Z,1018.88
2022-11-30T09:57:21.968Z,1018.95
2022-11-30T09:58:21.993Z,1018.93
2022-11-30T09:59:21.942Z,1018.91
2022-11-30T10:00:21.985Z,1018.84
2022-11-30T10:01:22.065Z,1018.88
2022-11-30T10:02:22.001Z,1018.88
2022-11-30T10:03:21.987Z,1018.89
2022-11-30T10:04:21.902Z,1018.88
2022-11-30T10:05:21.904Z,1018.87
2022-11-30T10:06:21.888Z,1018.86
2022-11-30T10:07:21.898Z,1018.91
2022-11-30T10:08:21.917Z,1018.93
2022-11-30T10:09:21.832Z,1018.93
2022-11-30T10:10:32.126Z,1018.92
2022-11-30T10:11:22.811Z,1018.86
2022-11-30T10:12:21.817Z,1018.89
2022-11-30T10:13:21.840Z,1018.87
2022-11-30T10:14:21.795Z,1018.88
2022-11-30T10:15:21.770Z,1018.89
2022-11-30T10:16:21.841Z,1018.90
2022-11-30T10:17:21.735Z,1018.90
2022-11-30T10:18:21.766Z,1018.93
2022-11-30T10:19:21.745Z,1018.92
2022-11-30T10:20:21.730Z,1018.90
2022-11-30T10:21:21.695Z,1018.94
2022-11-30T10:22:21.709Z,1018.96
2022-11-30T10:23:21.714Z,1018.98
2022-11-30T10:24:21.668Z,1018.99
2022-11-30T10:25:21.665Z,1018.95
2022-11-30T10:26:21.669Z,1019.02
2022-11-30T10:27:21.641Z,1018.97
2022-11-30T10:28:46.420Z,1018.93
2022-11-30T10:29:22.608Z,1018.98
2022-11-30T10:30:21.652Z,1018.97
2022-11-30T10:31:21.640Z,1019.03
2022-11-30T10:32:21.643Z,1019.05
2022-11-30T10:33:21.565Z,1018.98
2022-11-30T10:34:21.609Z,1019.00
2022-11-30T10:35:21.551Z,1019.02
2022-11-30T10:36:21.541Z,1018.98
2022-11-30T10:37:21.523Z,1018.94
2022-11-30T10:38:21.512Z,1018.92
2022-11-30T10:39:21.536Z,1018.93
2022-11-30T10:40:21.498Z,1018.95
2022-11-30T10:41:21.475Z,1018.94
2022-11-30T10:42:21.466Z,1018.91
2022-11-30T10:43:21.461Z,1018.91
2022-11-30T10:44:21.482Z,1018.89
2022-11-30T10:45:21.443Z,1018.88
2022-11-30T10:46:21.491Z,1018.94
2022-11-30T10:47:21.451Z,1018.92
2022-11-30T10:48:21.406Z,1018.88
2022-11-30T10:49:21.404Z,1018.95
2022-11-30T10:50:21.402Z,1018.91
2022-11-30T10:51:21.371Z,1018.90
2022-11-30T10:52:21.359Z,1018.87
2022-11-30T10:53:21.341Z,1018.87
2022-11-30T10:54:21.383Z,1018.90
2022-11-30T10:55:21.331Z,1018.89
2022-11-30T10:56:21.305Z,1018.88
2022-11-30T10:57:21.308Z,1018.86
2022-11-30T10:58:21.267Z,1018.84
2022-11-30T10:59:21.297Z,1018.84
2022-11-30T11:00:21.258Z,1018.82
2022-11-30T11:01:21.260Z,1018.85
2022-11-30T11:02:21.286Z,1018.82
2022-11-30T11:03:21.244Z,1018.85
2022-11-30T11:04:21.263Z,1018.85
2022-11-30T11:05:21.238Z,1018.84
2022-11-30T11:06:21.198Z,1018.85
2022-11-30T11:07:21.305Z,1018.87
2022-11-30T11:08:21.217Z,1018.91
2022-11-30T11:09:21.179Z,1018.85
2022-11-30T11:10:21.190Z,1018.88
2022-11-30T11:11:21.171Z,1018.92
2022-11-30T11:12:21.133Z,1018.84
2022-11-30T11:13:21.104Z,1018.86
2022-11-30T11:14:21.112Z,1018.86
2022-11-30T11:15:21.157Z,1018.88
2022-11-30T11:16:21.127Z,1018.85
2022-11-30T11:17:21.100Z,1018.83
2022-11-30T11:18:21.079Z,1018.85
2022-11-30T11:19:21.064Z,1018.81
2022-11-30T11:20:21.079Z,1018.88
2022-11-30T11:21:21.059Z,1018.86
2022-11-30T11:22:21.005Z,1018.83
2022-11-30T11:23:21.006Z,1018.86
2022-11-30T11:24:21.014Z,1018.81
2022-11-30T11:25:21.017Z,1018.82
2022-11-30T11:26:20.970Z,1018.84
2022-11-30T11:27:20.962Z,1018.77
2022-11-30T11:28:20.942Z,1018.82
2022-11-30T11:29:20.924Z,1018.82
2022-11-30T11:30:20.974Z,1018.80
2022-11-30T11:31:20.985Z,1018.80
2022-11-30T11:32:20.910Z,1018.82
2022-11-30T11:33:20.906Z,1018.79
2022-11-30T11:34:20.874Z,1018.82
2022-11-30T11:35:20.921Z,1018.81
2022-11-30T11:36:20.867Z,1018.77
2022-11-30T11:37:20.863Z,1018.76
2022-11-30T11:38:20.834Z,1018.77
2022-11-30T11:39:20.837Z,1018.77
2022-11-30T11:40:20.865Z,1018.78
2022-11-30T11:41:20.817Z,1018.72
2022-11-30T11:42:22.449Z,1018.76
2022-11-30T11:43:20.801Z,1018.76
2022-11-30T11:44:20.764Z,1018.78
2022-11-30T11:45:20.810Z,1018.78
2022-11-30T11:46:20.821Z,1018.76
2022-11-30T11:47:20.758Z,1018.80
2022-11-30T11:48:24.751Z,1018.82
2022-11-30T11:49:21.699Z,1018.79
2022-11-30T11:50:31.722Z,1018.84
2022-11-30T11:51:21.695Z,1018.83
2022-11-30T11:52:20.675Z,1018.84
2022-11-30T11:53:20.712Z,1018.83
2022-11-30T11:54:20.657Z,1018.88
2022-11-30T11:55:20.707Z,1018.80
2022-11-30T11:56:20.644Z,1018.86
2022-11-30T11:57:20.643Z,1018.83
2022-11-30T11:58:20.611Z,1018.80
2022-11-30T11:59:20.598Z,1018.83
2022-11-30T12:00:20.621Z,1018.85
2022-11-30T12:02:21.635Z,1018.85
2022-11-30T12:03:20.541Z,1018.81
2022-11-30T12:04:20.598Z,1018.89
2022-11-30T12:05:20.601Z,1018.86
2022-11-30T12:06:20.530Z,1018.91
2022-11-30T12:07:20.543Z,1018.89